Bolling AFB, District of Columbia
Current Conditions -  °F | °C
As of 11:52 AM on Saturday 22 Nov 2014 (Local Time) from KDCA Reporting Station
Scattered Clouds Scattered Clouds  
Wind Chill: 40°   Ceiling: Unl
Heat Index: 46°   Visibility: 10mi
Dew Point: 15°   Wind: 15mph
Humidity: 29%   Direction: 210°SSW
Pressure: 30.45"   Gusts: 26mph
Location:  38.8336°N, 77.0036°W
Report Text: KDCA 221652Z 21013G23KT 10SM SCT250 08/M09 A3045 RMK AO2 SLP310 T00781094
Loading
Personal Weather Stations






























Interactive Weather Map New forecast layout! Learn more

10-Day Weather Forecast

Advertisements
Track Severe Weather on mobile